createdAt,value
2023-03-29T00:00:25.470Z,56.07
2023-03-29T00:01:34.955Z,55.43
2023-03-29T00:02:26.615Z,53.98
2023-03-29T00:03:25.533Z,53.98
2023-03-29T00:04:25.497Z,55.91
2023-03-29T00:05:25.420Z,55.59
2023-03-29T00:06:25.456Z,57.52
2023-03-29T00:07:25.429Z,58.17
2023-03-29T00:08:25.426Z,58.01
2023-03-29T00:09:25.403Z,58.81
2023-03-29T00:10:25.413Z,58.17
2023-03-29T00:11:25.421Z,58.49
2023-03-29T00:12:25.426Z,57.36
2023-03-29T00:13:25.382Z,55.75
2023-03-29T00:14:25.399Z,54.30
2023-03-29T00:15:25.378Z,57.04
2023-03-29T00:16:25.454Z,54.79
2023-03-29T00:17:25.437Z,57.20
2023-03-29T00:18:25.370Z,56.24
2023-03-29T00:19:25.374Z,56.88
2023-03-29T00:20:25.367Z,54.79
2023-03-29T00:21:25.355Z,53.50
2023-03-29T00:22:25.357Z,58.65
2023-03-29T00:23:25.339Z,59.46
2023-03-29T00:24:25.357Z,60.10
2023-03-29T00:25:25.363Z,56.72
2023-03-29T00:26:25.341Z,57.69
2023-03-29T00:27:25.315Z,60.75
2023-03-29T00:28:25.314Z,54.95
2023-03-29T00:29:25.306Z,57.52
2023-03-29T00:30:25.322Z,54.14
2023-03-29T00:31:25.296Z,57.52
2023-03-29T00:32:25.319Z,58.65
2023-03-29T00:33:25.269Z,56.72
2023-03-29T00:34:25.288Z,58.33
2023-03-29T00:35:25.365Z,58.17
2023-03-29T00:36:25.290Z,58.49
2023-03-29T00:37:25.253Z,54.79
2023-03-29T00:38:25.267Z,58.17
2023-03-29T00:39:25.241Z,56.07
2023-03-29T00:40:25.272Z,55.27
2023-03-29T00:41:25.284Z,56.07
2023-03-29T00:42:25.247Z,58.17
2023-03-29T00:43:25.237Z,58.01
2023-03-29T00:44:25.242Z,56.72
2023-03-29T00:45:25.232Z,56.88
2023-03-29T00:46:25.312Z,55.91
2023-03-29T00:47:25.217Z,57.69
2023-03-29T00:48:25.210Z,53.82
2023-03-29T00:49:25.188Z,57.52
2023-03-29T00:50:25.213Z,56.56
2023-03-29T00:51:25.199Z,56.40
2023-03-29T00:52:25.196Z,59.30
2023-03-29T00:53:25.162Z,58.81
2023-03-29T00:54:25.166Z,57.69
2023-03-29T00:55:25.209Z,54.30
2023-03-29T00:56:25.161Z,57.20
2023-03-29T00:57:27.271Z,57.52
2023-03-29T00:58:25.200Z,55.43
2023-03-29T00:59:25.170Z,58.33
2023-03-29T01:00:25.149Z,54.95
2023-03-29T01:01:25.162Z,56.07
2023-03-29T01:02:25.155Z,57.04
2023-03-29T01:03:25.289Z,57.20
2023-03-29T01:04:25.136Z,58.01
2023-03-29T01:05:25.108Z,56.24
2023-03-29T01:06:25.157Z,57.36
2023-03-29T01:07:25.095Z,53.66
2023-03-29T01:08:25.133Z,55.91
2023-03-29T01:09:25.098Z,57.52
2023-03-29T01:10:25.109Z,56.07
2023-03-29T01:11:25.100Z,56.07
2023-03-29T01:12:25.115Z,60.42
2023-03-29T01:13:25.083Z,56.40
2023-03-29T01:14:25.084Z,55.91
2023-03-29T01:15:25.084Z,56.07
2023-03-29T01:16:25.109Z,54.95
2023-03-29T01:17:25.095Z,58.01
2023-03-29T01:18:25.069Z,59.94
2023-03-29T01:19:25.035Z,57.85
2023-03-29T01:20:25.045Z,59.62
2023-03-29T01:21:25.067Z,54.95
2023-03-29T01:22:25.057Z,54.95
2023-03-29T01:23:25.042Z,60.75
2023-03-29T01:24:25.053Z,58.97
2023-03-29T01:25:25.044Z,57.20
2023-03-29T01:26:25.020Z,57.69
2023-03-29T01:27:25.019Z,55.11
2023-03-29T01:28:25.011Z,55.75
2023-03-29T01:29:25.001Z,55.91
2023-03-29T01:30:25.047Z,53.33
2023-03-29T01:31:25.025Z,54.14
2023-03-29T01:32:25.015Z,55.27
2023-03-29T01:33:24.963Z,57.52
2023-03-29T01:34:24.975Z,56.88
2023-03-29T01:35:24.951Z,56.88
2023-03-29T01:36:24.992Z,53.17
2023-03-29T01:37:24.999Z,58.01
2023-03-29T01:38:24.957Z,56.24
2023-03-29T01:39:24.938Z,57.20
2023-03-29T01:40:24.970Z,56.56
2023-03-29T01:41:24.957Z,55.43
2023-03-29T01:42:25.063Z,54.95
2023-03-29T01:43:24.928Z,56.72
2023-03-29T01:44:24.915Z,54.30
2023-03-29T01:45:24.905Z,54.79
2023-03-29T01:46:24.984Z,55.91
2023-03-29T01:47:24.925Z,55.11
2023-03-29T01:48:24.906Z,54.14
2023-03-29T01:49:24.898Z,55.75
2023-03-29T01:50:24.887Z,52.21
2023-03-29T01:51:24.855Z,52.85
2023-03-29T01:52:24.867Z,55.91
2023-03-29T01:53:24.877Z,58.65
2023-03-29T01:54:24.867Z,60.10
2023-03-29T01:55:24.878Z,59.78
2023-03-29T01:56:24.858Z,59.30
2023-03-29T01:57:24.934Z,56.56
2023-03-29T01:58:24.837Z,56.07
2023-03-29T01:59:24.868Z,60.10
2023-03-29T02:00:24.897Z,59.30
2023-03-29T02:01:24.834Z,58.81
2023-03-29T02:02:24.880Z,54.30
2023-03-29T02:03:24.924Z,58.49
2023-03-29T02:04:24.809Z,56.24
2023-03-29T02:05:24.810Z,58.49
2023-03-29T02:06:24.801Z,58.01
2023-03-29T02:07:24.793Z,53.50
2023-03-29T02:08:24.795Z,58.49
2023-03-29T02:09:24.760Z,56.40
2023-03-29T02:10:24.768Z,53.01
2023-03-29T02:11:24.769Z,55.75
2023-03-29T02:12:24.775Z,59.30
2023-03-29T02:13:24.742Z,55.75
2023-03-29T02:14:24.749Z,57.69
2023-03-29T02:15:24.790Z,58.65
2023-03-29T02:16:24.773Z,57.36
2023-03-29T02:17:24.829Z,58.49
2023-03-29T02:18:24.767Z,55.11
2023-03-29T02:19:24.702Z,55.11
2023-03-29T02:20:24.718Z,56.07
2023-03-29T02:21:24.698Z,55.75
2023-03-29T02:22:24.722Z,59.14
2023-03-29T02:23:24.682Z,53.82
2023-03-29T02:24:24.702Z,55.91
2023-03-29T02:25:24.660Z,58.17
2023-03-29T02:26:24.672Z,57.36
2023-03-29T02:27:24.644Z,59.46
2023-03-29T02:28:24.730Z,55.91
2023-03-29T02:29:24.667Z,58.17
2023-03-29T02:30:24.675Z,56.24
2023-03-29T02:31:24.744Z,54.46
2023-03-29T02:32:24.714Z,58.81
2023-03-29T02:33:24.721Z,57.52
2023-03-29T02:34:24.662Z,58.49
2023-03-29T02:35:24.625Z,56.88
2023-03-29T02:36:24.629Z,58.01
2023-03-29T02:37:24.628Z,58.01
2023-03-29T02:38:24.653Z,56.56
2023-03-29T02:39:24.591Z,56.72
2023-03-29T02:40:24.611Z,56.88
2023-03-29T02:41:24.575Z,62.36
2023-03-29T02:42:24.586Z,59.30
2023-03-29T02:43:25.897Z,59.94
2023-03-29T02:44:24.601Z,59.30
2023-03-29T02:45:24.583Z,55.27
2023-03-29T02:46:24.593Z,55.75
2023-03-29T02:47:24.574Z,58.65
2023-03-29T02:48:24.547Z,57.69
2023-03-29T02:49:24.539Z,60.91
2023-03-29T02:50:24.534Z,55.43
2023-03-29T02:51:24.546Z,56.72
2023-03-29T02:52:24.532Z,58.97
2023-03-29T02:53:24.504Z,57.36
2023-03-29T02:54:24.503Z,56.40
2023-03-29T02:55:24.526Z,59.78
2023-03-29T02:56:24.497Z,56.72
2023-03-29T02:57:24.524Z,57.52
2023-03-29T02:58:24.501Z,60.42
2023-03-29T02:59:24.478Z,56.56
2023-03-29T03:00:24.469Z,58.65
2023-03-29T03:01:24.532Z,58.65
2023-03-29T03:02:24.511Z,54.62
2023-03-29T03:03:24.514Z,58.17
2023-03-29T03:04:24.447Z,59.78
2023-03-29T03:05:24.463Z,58.49
2023-03-29T03:06:24.485Z,61.23
2023-03-29T03:07:24.431Z,60.42
2023-03-29T03:08:24.459Z,58.17
2023-03-29T03:09:24.426Z,57.69
2023-03-29T03:10:24.434Z,58.97
2023-03-29T03:11:24.420Z,58.01
2023-03-29T03:12:24.428Z,58.65
2023-03-29T03:13:24.385Z,59.14
2023-03-29T03:14:24.440Z,58.97
2023-03-29T03:15:24.380Z,59.78
2023-03-29T03:16:24.418Z,60.10
2023-03-29T03:17:24.427Z,59.30
2023-03-29T03:18:24.388Z,58.01
2023-03-29T03:19:24.379Z,61.39
2023-03-29T03:20:24.378Z,57.69
2023-03-29T03:21:24.346Z,56.56
2023-03-29T03:22:24.372Z,58.01
2023-03-29T03:23:24.328Z,59.62
2023-03-29T03:24:24.325Z,58.81
2023-03-29T03:25:24.316Z,60.59
2023-03-29T03:26:24.326Z,59.14
2023-03-29T03:27:24.320Z,60.42
2023-03-29T03:28:24.373Z,59.94
2023-03-29T03:29:24.282Z,60.59
2023-03-29T03:30:24.293Z,59.78
2023-03-29T03:31:24.305Z,60.26
2023-03-29T03:32:24.367Z,62.52
2023-03-29T03:33:24.267Z,62.20
2023-03-29T03:34:24.309Z,60.75
2023-03-29T03:35:24.247Z,59.62
2023-03-29T03:36:24.255Z,62.20
2023-03-29T03:37:24.236Z,56.56
2023-03-29T03:38:24.291Z,60.10
2023-03-29T03:39:24.221Z,60.59
2023-03-29T03:40:25.583Z,59.46
2023-03-29T03:41:24.230Z,60.59
2023-03-29T03:42:24.225Z,60.26
2023-03-29T03:43:24.218Z,59.14
2023-03-29T03:44:24.260Z,60.59
2023-03-29T03:45:24.192Z,60.91
2023-03-29T03:46:24.216Z,59.30
2023-03-29T03:47:24.182Z,62.20
2023-03-29T03:48:24.189Z,62.20
2023-03-29T03:49:24.225Z,59.30
2023-03-29T03:50:24.201Z,61.23
2023-03-29T03:51:24.170Z,60.59
2023-03-29T03:52:24.185Z,60.59
2023-03-29T03:53:24.149Z,60.10
2023-03-29T03:54:24.149Z,62.84
2023-03-29T03:55:24.134Z,62.20
2023-03-29T03:56:24.171Z,58.81
2023-03-29T03:57:24.167Z,58.65
2023-03-29T03:58:24.120Z,63.97
2023-03-29T03:59:24.124Z,62.20
2023-03-29T04:00:24.123Z,60.75
2023-03-29T04:01:24.131Z,59.62
2023-03-29T04:02:24.141Z,60.91
2023-03-29T04:03:24.200Z,62.20
2023-03-29T04:04:24.187Z,61.23
2023-03-29T04:05:24.082Z,60.91
2023-03-29T04:06:24.074Z,60.10
2023-03-29T04:07:24.081Z,60.59
2023-03-29T04:08:24.076Z,60.91
2023-03-29T04:09:24.040Z,61.71
2023-03-29T04:10:24.063Z,61.39
2023-03-29T04:11:24.067Z,61.39
2023-03-29T04:12:24.062Z,63.00
2023-03-29T04:13:24.015Z,62.84
2023-03-29T04:14:24.046Z,60.10
2023-03-29T04:15:24.050Z,62.52
2023-03-29T04:16:24.114Z,64.29
2023-03-29T04:17:24.031Z,64.61
2023-03-29T04:18:24.101Z,62.52
2023-03-29T04:19:24.008Z,60.59
2023-03-29T04:20:24.004Z,60.59
2023-03-29T04:21:24.011Z,61.07
2023-03-29T04:22:23.998Z,64.94
2023-03-29T04:23:23.960Z,62.36
2023-03-29T04:24:23.984Z,62.20
2023-03-29T04:25:23.956Z,64.94
2023-03-29T04:26:23.956Z,62.04
2023-03-29T04:27:23.959Z,63.65
2023-03-29T04:28:23.947Z,62.36
2023-03-29T04:29:23.931Z,60.26
2023-03-29T04:30:23.975Z,62.52
2023-03-29T04:31:23.992Z,62.04
2023-03-29T04:32:23.946Z,64.13
2023-03-29T04:33:23.936Z,65.58
2023-03-29T04:34:23.918Z,62.52
2023-03-29T04:35:23.894Z,62.84
2023-03-29T04:36:23.960Z,60.75
2023-03-29T04:37:23.930Z,62.52
2023-03-29T04:38:23.898Z,62.68
2023-03-29T04:39:23.874Z,61.71
2023-03-29T04:40:23.897Z,63.16
2023-03-29T04:41:23.863Z,61.71
2023-03-29T04:42:23.889Z,61.71
2023-03-29T04:43:23.884Z,63.33
2023-03-29T04:44:23.870Z,63.00
2023-03-29T04:45:23.889Z,61.39
2023-03-29T04:46:23.912Z,61.55
2023-03-29T04:47:23.895Z,64.45
2023-03-29T04:48:23.872Z,62.68
2023-03-29T04:49:26.026Z,61.87
2023-03-29T04:50:23.842Z,62.20
2023-03-29T04:51:23.818Z,62.84
2023-03-29T04:52:24.596Z,63.81
2023-03-29T04:53:23.834Z,60.75
2023-03-29T04:54:23.848Z,63.00
2023-03-29T04:55:23.821Z,64.61
2023-03-29T04:56:23.824Z,62.52
2023-03-29T04:57:23.888Z,62.84
2023-03-29T04:58:27.150Z,62.84
2023-03-29T04:59:24.774Z,61.55
2023-03-29T05:00:23.790Z,63.81
2023-03-29T05:01:23.847Z,61.71
2023-03-29T05:02:23.816Z,64.13
2023-03-29T05:03:23.755Z,63.00
2023-03-29T05:04:23.839Z,64.13
2023-03-29T05:05:23.774Z,63.97
2023-03-29T05:06:23.751Z,64.13
2023-03-29T05:07:23.745Z,63.81
2023-03-29T05:08:23.780Z,64.45
2023-03-29T05:09:23.712Z,63.65
2023-03-29T05:10:23.755Z,64.94
2023-03-29T05:11:23.713Z,64.29
2023-03-29T05:12:23.755Z,64.13
2023-03-29T05:13:23.704Z,62.36
2023-03-29T05:14:23.717Z,63.16
2023-03-29T05:15:23.756Z,64.13
2023-03-29T05:16:23.718Z,63.33
2023-03-29T05:17:23.736Z,62.36
2023-03-29T05:18:23.687Z,63.65
2023-03-29T05:19:23.669Z,63.81
2023-03-29T05:20:23.706Z,61.71
2023-03-29T05:21:23.652Z,63.97
2023-03-29T05:22:23.673Z,61.71
2023-03-29T05:23:23.668Z,63.97
2023-03-29T05:24:23.672Z,63.16
2023-03-29T05:25:23.656Z,64.61
2023-03-29T05:26:23.679Z,63.65
2023-03-29T05:27:23.627Z,64.13
2023-03-29T05:28:23.645Z,62.20
2023-03-29T05:29:23.619Z,62.20
2023-03-29T05:30:23.632Z,64.78
2023-03-29T05:31:23.621Z,62.36
2023-03-29T05:32:23.651Z,62.84
2023-03-29T05:33:23.611Z,62.84
2023-03-29T05:34:23.593Z,63.33
2023-03-29T05:35:23.606Z,62.68
2023-03-29T05:36:23.657Z,63.49
2023-03-29T05:37:23.565Z,61.87
2023-03-29T05:38:23.564Z,62.68
2023-03-29T05:39:23.586Z,62.68
2023-03-29T05:40:23.634Z,63.00
2023-03-29T05:41:23.531Z,61.87
2023-03-29T05:42:23.563Z,63.00
2023-03-29T05:43:23.523Z,62.68
2023-03-29T05:44:30.559Z,62.04
2023-03-29T05:45:23.527Z,64.13
2023-03-29T05:46:23.608Z,64.45
2023-03-29T05:47:23.530Z,64.45
2023-03-29T05:48:23.550Z,62.04
2023-03-29T05:49:23.518Z,63.49
2023-03-29T05:50:23.547Z,62.84
2023-03-29T05:51:23.473Z,62.52
2023-03-29T05:52:23.539Z,60.42
2023-03-29T05:53:23.477Z,63.33
2023-03-29T05:54:23.487Z,61.07
2023-03-29T05:55:23.444Z,63.65
2023-03-29T05:56:23.477Z,64.13
2023-03-29T05:57:24.267Z,60.75
2023-03-29T05:58:23.488Z,62.20
2023-03-29T05:59:23.462Z,61.55
2023-03-29T06:00:23.500Z,62.04
2023-03-29T06:01:23.432Z,62.20
2023-03-29T06:02:23.556Z,63.49
2023-03-29T06:03:23.626Z,62.52
2023-03-29T06:04:23.686Z,62.36
2023-03-29T06:05:23.383Z,62.04
2023-03-29T06:06:23.444Z,62.68
2023-03-29T06:07:23.417Z,61.55
2023-03-29T06:08:23.542Z,62.20
2023-03-29T06:09:23.362Z,63.16
2023-03-29T06:10:23.388Z,59.94
2023-03-29T06:11:23.505Z,62.68
2023-03-29T06:12:23.409Z,61.39
2023-03-29T06:13:23.345Z,61.23
2023-03-29T06:14:23.464Z,62.68
2023-03-29T06:15:23.356Z,61.07
2023-03-29T06:16:23.380Z,62.68
2023-03-29T06:17:23.467Z,61.23
2023-03-29T06:18:23.375Z,61.23
2023-03-29T06:19:23.331Z,62.68
2023-03-29T06:20:23.383Z,62.04
2023-03-29T06:21:23.289Z,61.71
2023-03-29T06:22:23.327Z,61.55
2023-03-29T06:23:23.304Z,62.68
2023-03-29T06:24:23.388Z,62.36
2023-03-29T06:25:23.278Z,61.23
2023-03-29T06:26:24.096Z,60.26
2023-03-29T06:27:23.297Z,60.75
2023-03-29T06:28:23.303Z,59.94
2023-03-29T06:29:23.257Z,61.55
2023-03-29T06:30:23.329Z,60.75
2023-03-29T06:31:23.338Z,61.39
2023-03-29T06:32:23.350Z,61.39
2023-03-29T06:33:23.251Z,61.23
2023-03-29T06:34:23.450Z,59.78
2023-03-29T06:35:23.234Z,61.87
2023-03-29T06:36:23.241Z,63.16
2023-03-29T06:37:23.295Z,62.20
2023-03-29T06:38:23.289Z,63.33
2023-03-29T06:39:23.235Z,62.20
2023-03-29T06:40:23.238Z,61.07
2023-03-29T06:41:23.271Z,61.55
2023-03-29T06:42:23.227Z,61.55
2023-03-29T06:43:23.267Z,61.39
2023-03-29T06:44:23.272Z,60.42
2023-03-29T06:45:24.753Z,59.78
2023-03-29T06:46:23.281Z,60.42
2023-03-29T06:47:23.212Z,60.91
2023-03-29T06:48:23.191Z,61.23
2023-03-29T06:49:23.213Z,61.55
2023-03-29T06:50:23.256Z,62.04
2023-03-29T06:51:23.523Z,60.59
2023-03-29T06:52:23.198Z,58.97
2023-03-29T06:53:23.148Z,60.75
2023-03-29T06:54:23.142Z,61.07
2023-03-29T06:55:23.121Z,61.71
2023-03-29T06:56:23.192Z,59.14
2023-03-29T06:57:23.398Z,58.97
2023-03-29T06:58:23.138Z,60.42
2023-03-29T06:59:23.157Z,58.65
2023-03-29T07:00:23.130Z,59.14
2023-03-29T07:01:23.119Z,59.62
2023-03-29T07:02:23.293Z,60.59
2023-03-29T07:03:23.072Z,59.78
2023-03-29T07:04:23.157Z,58.49
2023-03-29T07:05:23.053Z,60.42
2023-03-29T07:06:23.101Z,57.20
2023-03-29T07:07:23.051Z,58.65
2023-03-29T07:08:23.201Z,61.07
2023-03-29T07:09:23.074Z,60.59
2023-03-29T07:10:23.114Z,58.01
2023-03-29T07:11:23.276Z,59.30
2023-03-29T07:12:23.119Z,59.78
2023-03-29T07:13:23.090Z,59.14
2023-03-29T07:14:23.073Z,60.59
2023-03-29T07:15:23.053Z,58.81
2023-03-29T07:16:23.069Z,60.42
2023-03-29T07:17:23.096Z,60.10
2023-03-29T07:18:23.020Z,60.59
2023-03-29T07:19:23.011Z,59.78
2023-03-29T07:20:23.071Z,60.91
2023-03-29T07:21:23.007Z,63.00
2023-03-29T07:22:23.026Z,58.17
2023-03-29T07:23:22.964Z,58.17
2023-03-29T07:24:23.023Z,58.65
2023-03-29T07:25:22.961Z,60.26
2023-03-29T07:26:28.311Z,57.85
2023-03-29T07:27:23.963Z,60.42
2023-03-29T07:28:22.996Z,59.30
2023-03-29T07:29:23.044Z,60.26
2023-03-29T07:30:22.983Z,59.30
2023-03-29T07:31:22.921Z,59.46
2023-03-29T07:32:22.989Z,58.17
2023-03-29T07:33:23.010Z,57.04
2023-03-29T07:34:22.941Z,59.94
2023-03-29T07:35:22.980Z,58.01
2023-03-29T07:36:23.004Z,57.85
2023-03-29T07:37:22.887Z,57.36
2023-03-29T07:38:22.954Z,60.91
2023-03-29T07:39:22.876Z,59.94
2023-03-29T07:40:22.967Z,58.97
2023-03-29T07:41:22.911Z,59.78
2023-03-29T07:42:22.895Z,58.49
2023-03-29T07:43:23.067Z,60.59
2023-03-29T07:44:22.868Z,58.33
2023-03-29T07:45:26.805Z,56.72
2023-03-29T07:46:24.030Z,60.26
2023-03-29T07:47:22.844Z,60.42
2023-03-29T07:48:22.882Z,58.97
2023-03-29T07:49:22.852Z,59.62
2023-03-29T07:50:22.834Z,57.69
2023-03-29T07:51:22.840Z,61.87
2023-03-29T07:52:22.857Z,59.46
2023-03-29T07:53:22.852Z,60.59
2023-03-29T07:54:22.817Z,58.97
2023-03-29T07:55:22.809Z,59.62
2023-03-29T07:56:22.820Z,58.33
2023-03-29T07:57:22.857Z,58.17
2023-03-29T07:58:22.803Z,61.07
2023-03-29T07:59:22.784Z,59.14
2023-03-29T08:00:22.873Z,60.10
2023-03-29T08:01:22.826Z,60.26
2023-03-29T08:02:22.809Z,58.97
2023-03-29T08:03:22.925Z,59.78
2023-03-29T08:04:22.925Z,59.62
2023-03-29T08:05:37.887Z,59.62
2023-03-29T08:06:23.745Z,60.75
2023-03-29T08:07:22.737Z,63.00
2023-03-29T08:08:22.767Z,60.10
2023-03-29T08:09:22.715Z,59.14
2023-03-29T08:10:22.806Z,63.65
2023-03-29T08:11:22.700Z,59.14
2023-03-29T08:12:24.550Z,59.30
2023-03-29T08:13:22.718Z,59.30
2023-03-29T08:14:22.725Z,60.10
2023-03-29T08:15:22.683Z,61.55
2023-03-29T08:16:22.773Z,61.55
2023-03-29T08:17:22.668Z,59.46
2023-03-29T08:18:22.699Z,59.78
2023-03-29T08:19:22.659Z,59.46
2023-03-29T08:20:22.665Z,60.42
2023-03-29T08:21:22.626Z,56.56
2023-03-29T08:22:22.653Z,57.52
2023-03-29T08:23:22.635Z,59.46
2023-03-29T08:24:22.667Z,57.69
2023-03-29T08:25:22.637Z,56.88
2023-03-29T08:26:22.621Z,60.10
2023-03-29T08:27:22.613Z,60.26
2023-03-29T08:28:22.624Z,60.75
2023-03-29T08:29:22.572Z,57.52
2023-03-29T08:30:22.616Z,56.88
2023-03-29T08:31:22.618Z,57.85
2023-03-29T08:32:22.596Z,57.20
2023-03-29T08:33:22.588Z,57.69
2023-03-29T08:34:22.558Z,58.65
2023-03-29T08:35:22.558Z,57.85
2023-03-29T08:36:22.603Z,59.78
2023-03-29T08:37:22.517Z,58.49
2023-03-29T08:38:22.532Z,57.52
2023-03-29T08:39:22.512Z,56.56
2023-03-29T08:40:22.529Z,56.24
2023-03-29T08:41:22.496Z,58.97
2023-03-29T08:42:22.538Z,57.85
2023-03-29T08:43:22.475Z,57.20
2023-03-29T08:44:22.495Z,58.17
2023-03-29T08:45:22.454Z,55.75
2023-03-29T08:46:22.539Z,59.78
2023-03-29T08:47:22.520Z,59.46
2023-03-29T08:48:22.515Z,59.62
2023-03-29T08:49:22.462Z,60.10
2023-03-29T08:50:22.456Z,55.75
2023-03-29T08:51:22.416Z,54.95
2023-03-29T08:52:22.429Z,57.52
2023-03-29T08:53:22.408Z,59.46
2023-03-29T08:54:22.439Z,59.94
2023-03-29T08:55:22.409Z,57.20
2023-03-29T08:56:22.402Z,57.20
2023-03-29T08:57:22.554Z,57.52
2023-03-29T08:58:22.394Z,56.07
2023-03-29T08:59:22.374Z,58.17
2023-03-29T09:00:22.379Z,58.17
2023-03-29T09:01:22.377Z,59.62
2023-03-29T09:02:22.437Z,60.26
2023-03-29T09:03:22.497Z,58.17
2023-03-29T09:04:22.381Z,57.52
2023-03-29T09:05:22.337Z,59.62
2023-03-29T09:06:22.393Z,59.14
2023-03-29T09:07:24.632Z,58.65
2023-03-29T09:08:22.369Z,59.14
2023-03-29T09:09:22.334Z,56.88
2023-03-29T09:10:22.337Z,59.30
2023-03-29T09:11:22.336Z,58.81
2023-03-29T09:12:22.308Z,60.42
2023-03-29T09:13:22.304Z,56.07
2023-03-29T09:14:22.280Z,55.75
2023-03-29T09:15:22.294Z,58.49
2023-03-29T09:16:22.279Z,58.01
2023-03-29T09:17:22.249Z,57.36
2023-03-29T09:18:22.245Z,57.36
2023-03-29T09:19:22.229Z,57.20
2023-03-29T09:20:22.254Z,60.91
2023-03-29T09:21:22.258Z,58.17
2023-03-29T09:22:22.233Z,57.04
2023-03-29T09:23:22.211Z,59.30
2023-03-29T09:24:22.198Z,59.14
2023-03-29T09:25:22.197Z,58.65
2023-03-29T09:26:22.224Z,58.49
2023-03-29T09:27:22.205Z,58.49
2023-03-29T09:28:22.168Z,58.97
2023-03-29T09:29:22.145Z,58.17
2023-03-29T09:30:22.167Z,58.49
2023-03-29T09:31:22.243Z,57.85
2023-03-29T09:32:22.136Z,58.81
2023-03-29T09:33:22.188Z,57.04
2023-03-29T09:34:22.148Z,57.85
2023-03-29T09:35:22.100Z,57.69
2023-03-29T09:36:22.141Z,59.78
2023-03-29T09:37:22.104Z,58.33
2023-03-29T09:38:22.111Z,57.04
2023-03-29T09:39:22.118Z,58.97
2023-03-29T09:40:22.138Z,58.01
2023-03-29T09:41:22.079Z,60.10
2023-03-29T09:42:22.074Z,58.65
2023-03-29T09:43:22.066Z,58.65
2023-03-29T09:44:30.748Z,58.81
2023-03-29T09:45:23.088Z,58.01
2023-03-29T09:46:22.065Z,56.24
2023-03-29T09:47:22.052Z,58.49
2023-03-29T09:48:22.060Z,57.04
2023-03-29T09:49:22.077Z,58.33
2023-03-29T09:50:31.114Z,59.94
2023-03-29T09:51:23.028Z,58.97
2023-03-29T09:52:22.041Z,59.94
2023-03-29T09:53:21.987Z,58.81
2023-03-29T09:54:22.020Z,58.17
2023-03-29T09:55:21.973Z,57.52
2023-03-29T09:56:21.982Z,58.97
2023-03-29T09:57:22.060Z,54.95
2023-03-29T09:58:21.998Z,56.24
2023-03-29T09:59:21.957Z,57.04
2023-03-29T10:00:21.977Z,56.24
2023-03-29T10:01:22.002Z,58.33
2023-03-29T10:02:21.992Z,58.81
2023-03-29T10:03:21.949Z,58.17
2023-03-29T10:04:21.925Z,59.14
2023-03-29T10:05:21.973Z,59.62
2023-03-29T10:06:21.947Z,58.17
2023-03-29T10:07:21.913Z,57.85
2023-03-29T10:08:21.917Z,58.49
2023-03-29T10:09:21.861Z,58.01
2023-03-29T10:10:21.901Z,57.52
2023-03-29T10:11:21.872Z,60.10
2023-03-29T10:12:21.883Z,59.62
2023-03-29T10:13:21.883Z,60.42
2023-03-29T10:14:21.907Z,57.52
2023-03-29T10:15:29.221Z,58.65
2023-03-29T10:16:22.897Z,58.65
2023-03-29T10:17:21.834Z,58.01
2023-03-29T10:18:21.851Z,59.62
2023-03-29T10:19:21.800Z,58.81
2023-03-29T10:20:21.851Z,60.59
2023-03-29T10:21:21.812Z,60.10
2023-03-29T10:22:21.829Z,59.62
2023-03-29T10:23:21.773Z,59.94
2023-03-29T10:24:21.804Z,58.65
2023-03-29T10:25:21.767Z,61.07
2023-03-29T10:26:21.766Z,59.46
2023-03-29T10:27:21.776Z,60.10
2023-03-29T10:28:21.800Z,58.97
2023-03-29T10:29:21.731Z,58.65
2023-03-29T10:30:21.739Z,57.85
2023-03-29T10:31:21.753Z,58.49
2023-03-29T10:32:21.775Z,58.49
2023-03-29T10:33:21.747Z,60.91
2023-03-29T10:34:21.724Z,58.33
2023-03-29T10:35:21.703Z,59.14
2023-03-29T10:36:21.703Z,59.30
2023-03-29T10:37:21.673Z,58.01
2023-03-29T10:38:21.684Z,58.33
2023-03-29T10:39:21.693Z,59.14
2023-03-29T10:40:21.693Z,59.78
2023-03-29T10:41:21.699Z,59.62
2023-03-29T10:42:21.670Z,58.33
2023-03-29T10:43:21.650Z,58.01
2023-03-29T10:44:21.663Z,59.94
2023-03-29T10:45:21.633Z,59.46
2023-03-29T10:46:21.686Z,57.69
2023-03-29T10:47:21.634Z,58.81
2023-03-29T10:48:21.628Z,59.14
2023-03-29T10:49:21.677Z,59.46
2023-03-29T10:50:21.601Z,56.07
2023-03-29T10:51:21.581Z,58.81
2023-03-29T10:52:21.577Z,58.81
2023-03-29T10:53:21.635Z,59.62
2023-03-29T10:54:21.582Z,58.49
2023-03-29T10:55:21.574Z,58.81
2023-03-29T10:56:21.608Z,59.14
2023-03-29T10:57:22.884Z,59.14
2023-03-29T10:58:21.545Z,58.81
2023-03-29T10:59:21.531Z,58.01
2023-03-29T11:00:21.554Z,57.85
2023-03-29T11:01:21.519Z,57.52
2023-03-29T11:02:21.575Z,58.17
2023-03-29T11:03:21.858Z,59.14
2023-03-29T11:04:21.508Z,59.62
2023-03-29T11:05:21.481Z,58.97
2023-03-29T11:06:21.495Z,59.30
2023-03-29T11:07:21.502Z,60.10
2023-03-29T11:08:21.464Z,61.55
2023-03-29T11:09:21.433Z,58.17
2023-03-29T11:10:21.478Z,59.46
2023-03-29T11:11:21.519Z,59.78
2023-03-29T11:12:21.435Z,60.10
2023-03-29T11:13:21.401Z,60.59
2023-03-29T11:14:21.458Z,57.69
2023-03-29T11:15:21.401Z,58.97
2023-03-29T11:16:21.456Z,58.17
2023-03-29T11:17:21.532Z,58.33
2023-03-29T11:18:21.427Z,57.85
2023-03-29T11:19:21.406Z,57.52
2023-03-29T11:20:21.445Z,59.78
2023-03-29T11:21:21.365Z,61.23
2023-03-29T11:22:21.365Z,58.17
2023-03-29T11:23:21.339Z,58.01
2023-03-29T11:24:21.352Z,58.65
2023-03-29T11:25:21.352Z,57.20
2023-03-29T11:26:21.353Z,59.62
2023-03-29T11:27:21.326Z,58.65
2023-03-29T11:28:21.318Z,58.33
2023-03-29T11:29:21.328Z,59.78
2023-03-29T11:30:21.314Z,60.26
2023-03-29T11:31:21.705Z,58.65
2023-03-29T11:32:21.330Z,60.59
2023-03-29T11:33:21.260Z,59.14
2023-03-29T11:34:21.310Z,60.26
2023-03-29T11:35:21.247Z,58.65
2023-03-29T11:36:21.288Z,58.01
2023-03-29T11:37:21.240Z,58.65
2023-03-29T11:38:21.292Z,58.17
2023-03-29T11:39:21.225Z,59.30
2023-03-29T11:40:21.243Z,60.91
2023-03-29T11:41:21.217Z,59.78
2023-03-29T11:42:21.213Z,59.78
2023-03-29T11:43:21.202Z,59.94
2023-03-29T11:44:21.228Z,59.94
2023-03-29T11:45:28.230Z,59.94
2023-03-29T11:46:21.231Z,60.10
2023-03-29T11:47:21.158Z,60.75
2023-03-29T11:48:21.169Z,59.78
2023-03-29T11:49:21.180Z,57.52
2023-03-29T11:50:21.162Z,60.10
2023-03-29T11:51:21.141Z,59.46
2023-03-29T11:52:21.140Z,59.62
2023-03-29T11:53:21.158Z,60.91
2023-03-29T11:54:21.124Z,58.65
2023-03-29T11:55:21.120Z,58.81
2023-03-29T11:56:21.111Z,59.94
2023-03-29T11:57:21.246Z,59.62
2023-03-29T11:58:21.110Z,60.75
2023-03-29T11:59:21.064Z,60.75
2023-03-29T12:00:21.088Z,60.10
2023-03-29T12:01:21.074Z,60.59
2023-03-29T12:02:21.219Z,60.59
2023-03-29T12:03:21.099Z,60.59
2023-03-29T12:04:21.156Z,58.33
2023-03-29T12:05:21.036Z,58.49
2023-03-29T12:06:21.034Z,62.04
2023-03-29T12:07:21.030Z,61.55
2023-03-29T12:08:21.006Z,58.81
2023-03-29T12:09:21.042Z,58.97
2023-03-29T12:10:21.003Z,61.55
2023-03-29T12:11:20.983Z,62.04
2023-03-29T12:12:20.982Z,59.62
2023-03-29T12:13:20.985Z,60.91
2023-03-29T12:14:20.970Z,58.65
2023-03-29T12:15:20.974Z,59.94
2023-03-29T12:16:20.997Z,60.26
2023-03-29T12:17:20.932Z,61.39
2023-03-29T12:18:20.942Z,61.07
2023-03-29T12:19:20.921Z,59.14
2023-03-29T12:20:20.946Z,59.62
2023-03-29T12:21:20.995Z,60.10
2023-03-29T12:22:20.932Z,60.59
2023-03-29T12:23:20.884Z,60.10
2023-03-29T12:24:20.981Z,61.55
2023-03-29T12:25:22.793Z,59.62
2023-03-29T12:26:20.898Z,59.94
2023-03-29T12:27:20.900Z,60.59
2023-03-29T12:28:20.878Z,60.10
2023-03-29T12:29:20.862Z,58.97
2023-03-29T12:30:20.872Z,60.59
2023-03-29T12:31:20.851Z,60.42
2023-03-29T12:32:20.907Z,60.10
2023-03-29T12:33:20.853Z,60.26
2023-03-29T12:34:20.854Z,60.26
2023-03-29T12:35:20.784Z,60.42
2023-03-29T12:36:20.834Z,60.26
2023-03-29T12:37:20.776Z,60.26
2023-03-29T12:38:20.824Z,59.62
2023-03-29T12:39:20.754Z,59.78
2023-03-29T12:40:20.779Z,60.75
2023-03-29T12:41:20.729Z,60.26
2023-03-29T12:42:20.773Z,60.10
2023-03-29T12:43:20.720Z,60.10
2023-03-29T12:44:20.775Z,59.94
2023-03-29T12:45:20.725Z,59.14
2023-03-29T12:46:20.783Z,57.20
2023-03-29T12:47:20.684Z,58.17
2023-03-29T12:48:20.722Z,58.65
2023-03-29T12:49:21.218Z,58.49
2023-03-29T12:50:20.716Z,59.46
2023-03-29T12:51:20.653Z,61.23
2023-03-29T12:52:20.673Z,60.75